createdAt,value
2024-01-27T00:00:57.778Z,6.90
2024-01-27T00:03:26.869Z,7.28
2024-01-27T00:08:22.846Z,6.53
2024-01-27T00:10:50.503Z,7.07
2024-01-27T00:13:18.035Z,6.90
2024-01-27T00:15:45.576Z,6.90
2024-01-27T00:18:13.313Z,9.05
2024-01-27T00:20:42.447Z,7.97
2024-01-27T00:23:10.068Z,8.35
2024-01-27T00:25:37.759Z,6.82
2024-01-27T00:28:05.802Z,10.05
2024-01-27T00:30:33.552Z,6.82
2024-01-27T00:33:01.236Z,6.78
2024-01-27T00:35:28.905Z,5.97
2024-01-27T00:37:58.109Z,7.65
2024-01-27T00:42:53.341Z,6.45
2024-01-27T00:45:21.349Z,6.05
2024-01-27T00:47:49.303Z,6.35
2024-01-27T00:50:17.001Z,4.75
2024-01-27T00:52:44.559Z,10.18
2024-01-27T00:55:13.648Z,6.72
2024-01-27T00:57:41.348Z,4.82
2024-01-27T01:00:10.775Z,4.30
2024-01-27T01:02:38.874Z,9.27
2024-01-27T01:05:06.832Z,5.70
2024-01-27T01:07:34.467Z,8.20
2024-01-27T01:10:02.624Z,7.38
2024-01-27T01:12:31.773Z,10.35
2024-01-27T01:14:59.592Z,9.00
2024-01-27T01:17:27.241Z,6.72
2024-01-27T01:19:55.234Z,8.93
2024-01-27T01:22:22.839Z,8.30
2024-01-27T01:24:50.506Z,8.93
2024-01-27T01:27:20.216Z,7.38
2024-01-27T01:29:49.519Z,9.35
2024-01-27T01:32:17.171Z,10.30
2024-01-27T01:34:47.044Z,5.93
2024-01-27T01:37:14.802Z,6.43
2024-01-27T01:39:42.542Z,5.90
2024-01-27T01:42:10.167Z,7.63
2024-01-27T01:44:37.855Z,10.60
2024-01-27T01:47:08.886Z,7.25
2024-01-27T01:49:37.309Z,5.18
2024-01-27T01:52:06.045Z,8.48
2024-01-27T01:54:33.969Z,7.50
2024-01-27T01:57:02.012Z,8.00
2024-01-27T01:59:29.784Z,5.50
2024-01-27T02:01:57.532Z,7.32
2024-01-27T02:04:26.568Z,7.38
2024-01-27T02:06:54.232Z,6.13
2024-01-27T02:09:21.880Z,5.97
2024-01-27T02:11:49.664Z,6.72
2024-01-27T02:14:18.819Z,7.20
2024-01-27T02:16:46.392Z,5.30
2024-01-27T02:19:14.163Z,7.30
2024-01-27T02:21:43.316Z,8.80
2024-01-27T02:24:12.369Z,5.63
2024-01-27T02:26:39.965Z,8.68
2024-01-27T02:29:07.532Z,5.90
2024-01-27T02:31:35.325Z,5.80
2024-01-27T02:34:03.050Z,7.18
2024-01-27T02:36:30.828Z,9.68
2024-01-27T02:38:58.470Z,9.57
2024-01-27T02:41:28.053Z,7.35
2024-01-27T02:43:55.759Z,6.60
2024-01-27T02:46:23.412Z,6.13
2024-01-27T02:48:51.237Z,6.95
2024-01-27T02:51:20.722Z,6.45
2024-01-27T02:53:48.512Z,8.20
2024-01-27T02:56:17.800Z,6.68
2024-01-27T02:58:46.747Z,4.75
2024-01-27T03:01:14.450Z,6.45
2024-01-27T03:03:42.192Z,9.52
2024-01-27T03:06:09.927Z,7.88
2024-01-27T03:08:37.628Z,6.65
2024-01-27T03:11:05.542Z,9.68
2024-01-27T03:13:34.251Z,9.13
2024-01-27T03:16:03.406Z,5.88
2024-01-27T03:18:31.415Z,6.82
2024-01-27T03:20:59.351Z,6.63
2024-01-27T03:23:26.953Z,6.20
2024-01-27T03:25:54.928Z,7.72
2024-01-27T03:28:22.911Z,8.38
2024-01-27T03:30:50.566Z,8.35
2024-01-27T03:33:19.858Z,10.75
2024-01-27T03:35:47.645Z,5.55
2024-01-27T03:38:15.319Z,8.27
2024-01-27T03:40:42.845Z,8.60
2024-01-27T03:43:10.411Z,8.85
2024-01-27T03:45:38.111Z,11.75
2024-01-27T03:48:06.844Z,9.23
2024-01-27T03:50:35.868Z,6.88
2024-01-27T03:53:03.519Z,11.95
2024-01-27T03:55:32.503Z,10.23
2024-01-27T03:58:00.171Z,7.40
2024-01-27T04:00:29.000Z,12.63
2024-01-27T04:02:56.666Z,7.40
2024-01-27T04:05:24.292Z,7.50
2024-01-27T04:07:53.290Z,9.82
2024-01-27T04:10:21.456Z,8.38
2024-01-27T04:12:49.064Z,7.90
2024-01-27T04:15:16.755Z,8.80
2024-01-27T04:17:44.390Z,10.52
2024-01-27T04:20:12.714Z,6.85
2024-01-27T04:22:40.664Z,9.02
2024-01-27T04:25:09.900Z,10.75
2024-01-27T04:27:45.750Z,10.38
2024-01-27T04:30:14.338Z,8.35
2024-01-27T04:32:42.308Z,7.97
2024-01-27T04:35:10.820Z,9.25
2024-01-27T04:37:38.745Z,8.23
2024-01-27T04:40:07.397Z,10.13
2024-01-27T04:42:39.006Z,8.40
2024-01-27T04:45:07.272Z,6.82
2024-01-27T04:47:35.197Z,9.25
2024-01-27T04:50:02.936Z,6.07
2024-01-27T04:52:31.925Z,8.35
2024-01-27T04:54:59.711Z,6.68
2024-01-27T04:57:27.300Z,7.13
2024-01-27T04:59:56.384Z,6.47
2024-01-27T05:02:23.966Z,5.78
2024-01-27T05:04:51.505Z,6.80
2024-01-27T05:07:19.285Z,8.40
2024-01-27T05:09:47.009Z,9.27
2024-01-27T05:12:14.643Z,11.15
2024-01-27T05:14:44.751Z,7.30
2024-01-27T05:17:13.756Z,6.60
2024-01-27T05:19:41.591Z,7.78
2024-01-27T05:22:09.161Z,5.03
2024-01-27T05:24:36.817Z,6.60
2024-01-27T05:27:05.167Z,8.38
2024-01-27T05:29:32.743Z,6.07
2024-01-27T05:32:00.319Z,6.22
2024-01-27T05:34:29.494Z,7.45
2024-01-27T05:36:57.271Z,7.65
2024-01-27T05:39:24.871Z,7.28
2024-01-27T05:41:52.500Z,9.38
2024-01-27T05:44:20.070Z,6.75
2024-01-27T05:46:48.146Z,8.05
2024-01-27T05:49:15.895Z,9.43
2024-01-27T05:51:45.037Z,9.85
2024-01-27T05:54:15.944Z,7.72
2024-01-27T05:56:43.754Z,7.35
2024-01-27T05:59:11.341Z,9.13
2024-01-27T06:01:41.199Z,8.23
2024-01-27T06:04:09.083Z,7.13
2024-01-27T06:06:39.577Z,9.60
2024-01-27T06:09:12.383Z,6.72
2024-01-27T06:11:40.208Z,8.63
2024-01-27T06:14:07.875Z,7.22
2024-01-27T06:16:36.664Z,6.15
2024-01-27T06:19:04.744Z,11.50
2024-01-27T06:21:32.956Z,6.82
2024-01-27T06:24:01.022Z,5.70
2024-01-27T06:26:30.040Z,5.28
2024-01-27T06:28:58.089Z,6.80
2024-01-27T06:31:25.657Z,10.32
2024-01-27T06:33:53.621Z,8.48
2024-01-27T06:36:24.181Z,6.65
2024-01-27T06:38:52.443Z,5.47
2024-01-27T06:41:20.028Z,10.75
2024-01-27T06:43:48.965Z,10.05
2024-01-27T06:46:16.648Z,6.57
2024-01-27T06:48:44.748Z,7.75
2024-01-27T06:51:13.052Z,6.53
2024-01-27T06:53:40.776Z,7.40
2024-01-27T06:56:08.999Z,6.43
2024-01-27T06:58:37.638Z,7.47
2024-01-27T07:01:08.500Z,6.63
2024-01-27T07:03:36.261Z,7.95
2024-01-27T07:06:04.637Z,7.05
2024-01-27T07:08:36.905Z,8.07
2024-01-27T07:11:06.203Z,6.30
2024-01-27T07:13:33.842Z,11.25
2024-01-27T07:16:01.553Z,6.95
2024-01-27T07:18:31.121Z,10.70
2024-01-27T07:21:00.928Z,7.53
2024-01-27T07:23:28.723Z,12.45
2024-01-27T07:25:56.313Z,9.68
2024-01-27T07:28:23.882Z,9.98
2024-01-27T07:30:51.445Z,8.70
2024-01-27T07:33:19.177Z,7.65
2024-01-27T07:35:48.308Z,9.90
2024-01-27T07:38:15.841Z,7.30
2024-01-27T07:40:43.591Z,7.32
2024-01-27T07:43:11.106Z,11.13
2024-01-27T07:45:38.859Z,6.85
2024-01-27T07:48:07.367Z,8.90
2024-01-27T07:50:35.088Z,8.13
2024-01-27T07:53:04.360Z,9.52
2024-01-27T07:55:32.023Z,8.82
2024-01-27T07:57:59.712Z,11.55
2024-01-27T08:00:28.041Z,7.55
2024-01-27T08:02:55.623Z,11.65
2024-01-27T08:05:23.236Z,11.15
2024-01-27T08:07:51.069Z,9.80
2024-01-27T08:10:20.085Z,11.43
2024-01-27T08:12:47.723Z,11.23
2024-01-27T08:15:15.864Z,10.40
2024-01-27T08:17:43.724Z,9.00
2024-01-27T08:20:12.034Z,14.82
2024-01-27T08:22:39.608Z,12.30
2024-01-27T08:25:08.085Z,13.25
2024-01-27T08:27:37.169Z,11.38
2024-01-27T08:30:06.879Z,10.73
2024-01-27T08:32:35.841Z,16.25
2024-01-27T08:35:03.978Z,12.50
2024-01-27T08:37:33.706Z,11.70
2024-01-27T08:40:01.428Z,13.02
2024-01-27T08:42:29.107Z,11.52
2024-01-27T08:44:58.187Z,12.45
2024-01-27T08:47:25.767Z,14.38
2024-01-27T08:49:53.415Z,14.38
2024-01-27T08:52:21.121Z,13.85
2024-01-27T08:54:48.710Z,11.15
2024-01-27T08:57:16.415Z,15.50
2024-01-27T08:59:44.193Z,15.98
2024-01-27T09:02:13.592Z,15.05
2024-01-27T09:04:41.785Z,15.75
2024-01-27T09:07:09.505Z,20.27
2024-01-27T09:09:39.414Z,16.45
2024-01-27T09:12:07.933Z,15.00
2024-01-27T09:14:35.701Z,18.40
2024-01-27T09:17:03.629Z,11.52
2024-01-27T09:19:32.911Z,17.35
2024-01-27T09:22:00.606Z,12.57
2024-01-27T09:24:28.687Z,16.15
2024-01-27T09:26:56.349Z,14.07
2024-01-27T09:29:24.100Z,12.38
2024-01-27T09:31:51.958Z,10.05
2024-01-27T09:34:19.764Z,9.07
2024-01-27T09:36:48.909Z,11.43
2024-01-27T09:39:16.580Z,9.95
2024-01-27T09:41:44.905Z,11.60
2024-01-27T09:44:14.772Z,10.48
2024-01-27T09:46:42.839Z,26.50
2024-01-27T09:49:14.275Z,19.13
2024-01-27T09:51:42.849Z,12.13
2024-01-27T09:54:12.157Z,14.23
2024-01-27T09:56:40.068Z,12.88
2024-01-27T09:59:10.294Z,14.73
2024-01-27T10:01:39.377Z,11.10
2024-01-27T10:06:37.084Z,9.60
2024-01-27T10:09:05.054Z,10.32
2024-01-27T10:11:37.420Z,9.10
2024-01-27T10:14:05.005Z,13.02
2024-01-27T10:16:41.457Z,8.55
2024-01-27T10:19:14.889Z,7.50
2024-01-27T10:21:42.634Z,8.20
2024-01-27T10:24:10.317Z,8.38
2024-01-27T10:26:39.493Z,9.63
2024-01-27T10:29:07.524Z,7.97
2024-01-27T10:31:37.549Z,14.68
2024-01-27T10:34:06.313Z,10.95
2024-01-27T10:36:42.047Z,12.80
2024-01-27T10:39:21.632Z,8.13
2024-01-27T10:41:51.879Z,6.78
2024-01-27T10:44:20.840Z,12.38
2024-01-27T10:49:19.114Z,5.28
2024-01-27T10:51:52.733Z,7.82
2024-01-27T10:54:26.587Z,4.93
2024-01-27T10:56:57.516Z,4.40
2024-01-27T10:59:28.201Z,6.38
2024-01-27T11:01:57.181Z,6.13
2024-01-27T11:04:27.097Z,6.88
2024-01-27T11:06:55.084Z,8.10
2024-01-27T11:09:23.162Z,7.25
2024-01-27T11:11:51.458Z,9.13
2024-01-27T11:14:20.616Z,6.68
2024-01-27T11:16:49.049Z,8.55
2024-01-27T11:19:18.783Z,5.65
2024-01-27T11:21:46.582Z,6.80
2024-01-27T11:24:16.172Z,7.10
2024-01-27T11:26:43.990Z,5.80
2024-01-27T11:29:20.617Z,8.52
2024-01-27T11:31:50.506Z,8.30
2024-01-27T11:34:21.814Z,6.38
2024-01-27T11:36:49.904Z,9.85
2024-01-27T11:39:27.756Z,8.95
2024-01-27T11:42:06.345Z,11.82
2024-01-27T11:44:35.670Z,9.63
2024-01-27T11:47:05.644Z,7.55
2024-01-27T11:49:34.793Z,9.00
2024-01-27T11:52:03.153Z,9.00
2024-01-27T11:54:30.843Z,7.38
2024-01-27T11:56:58.563Z,6.50
2024-01-27T11:59:26.247Z,7.65
2024-01-27T12:01:53.920Z,6.60
2024-01-27T12:04:23.616Z,6.25
2024-01-27T12:06:51.605Z,6.13
2024-01-27T12:09:19.529Z,5.63
2024-01-27T12:11:47.395Z,6.32
2024-01-27T12:14:14.967Z,5.40
2024-01-27T12:16:42.703Z,5.28
2024-01-27T12:19:12.178Z,5.70
2024-01-27T12:21:48.896Z,9.70
2024-01-27T12:24:21.955Z,5.70
2024-01-27T12:26:50.281Z,7.35
2024-01-27T12:29:20.759Z,5.50
2024-01-27T12:31:48.453Z,7.05
2024-01-27T12:34:18.043Z,5.55
2024-01-27T12:36:48.601Z,4.57
2024-01-27T12:39:16.456Z,5.13
2024-01-27T12:41:44.219Z,4.03
2024-01-27T12:44:12.189Z,3.17
2024-01-27T12:46:39.966Z,7.28
2024-01-27T12:49:09.182Z,7.15
2024-01-27T12:51:37.724Z,6.03
2024-01-27T12:54:07.975Z,4.35
2024-01-27T12:56:36.210Z,4.10
2024-01-27T12:59:03.953Z,6.93
2024-01-27T13:01:31.620Z,9.35
2024-01-27T13:03:59.310Z,5.32
2024-01-27T13:06:27.074Z,6.75
2024-01-27T13:08:55.533Z,5.60
2024-01-27T13:11:25.543Z,4.70
2024-01-27T13:13:53.249Z,4.25
2024-01-27T13:16:20.985Z,4.93
2024-01-27T13:18:48.898Z,5.95
2024-01-27T13:21:16.717Z,3.92
2024-01-27T13:23:44.504Z,6.65
2024-01-27T13:26:18.184Z,3.30
2024-01-27T13:28:50.298Z,6.20
2024-01-27T13:31:19.545Z,7.95
2024-01-27T13:33:47.550Z,5.32
2024-01-27T13:36:15.422Z,5.82
2024-01-27T13:38:43.127Z,3.33
2024-01-27T13:41:10.751Z,5.25
2024-01-27T13:43:38.382Z,6.22
2024-01-27T13:46:07.683Z,3.15
2024-01-27T13:48:35.733Z,5.80
2024-01-27T13:51:04.285Z,2.50
2024-01-27T13:56:14.647Z,5.88
2024-01-27T13:58:42.880Z,4.97
2024-01-27T14:01:12.021Z,3.47
2024-01-27T14:03:40.255Z,4.35
2024-01-27T14:06:13.198Z,7.10
2024-01-27T14:08:41.235Z,4.38
2024-01-27T14:11:08.833Z,3.97
2024-01-27T14:13:36.439Z,3.42
2024-01-27T14:16:04.506Z,4.50
2024-01-27T14:18:34.408Z,4.53
2024-01-27T14:21:02.137Z,9.25
2024-01-27T14:23:29.955Z,4.65
2024-01-27T14:25:57.889Z,3.92
2024-01-27T14:28:26.082Z,6.65
2024-01-27T14:30:54.030Z,4.28
2024-01-27T14:33:22.343Z,3.83
2024-01-27T14:35:51.860Z,3.42
2024-01-27T14:38:19.441Z,3.75
2024-01-27T14:40:47.006Z,5.05
2024-01-27T14:43:14.988Z,5.22
2024-01-27T14:45:43.885Z,3.38
2024-01-27T14:48:11.955Z,4.65
2024-01-27T14:50:39.865Z,5.15
2024-01-27T14:53:08.920Z,3.33
2024-01-27T14:55:36.485Z,4.20
2024-01-27T14:58:05.201Z,1.63
2024-01-27T15:00:33.098Z,2.35
2024-01-27T15:03:03.102Z,7.00
2024-01-27T15:05:31.125Z,4.45
2024-01-27T15:07:58.892Z,2.47
2024-01-27T15:10:27.921Z,5.20
2024-01-27T15:12:55.818Z,3.40
2024-01-27T15:15:23.535Z,1.35
2024-01-27T15:17:51.333Z,4.20
2024-01-27T15:20:19.124Z,2.13
2024-01-27T15:22:46.865Z,3.33
2024-01-27T15:25:14.573Z,2.97
2024-01-27T15:27:44.612Z,5.75
2024-01-27T15:30:14.173Z,4.85
2024-01-27T15:32:41.860Z,3.90
2024-01-27T15:35:09.935Z,3.35
2024-01-27T15:37:39.503Z,3.97
2024-01-27T15:40:08.816Z,4.10
2024-01-27T15:42:37.376Z,2.90
2024-01-27T15:45:07.319Z,4.28
2024-01-27T15:47:35.023Z,2.83
2024-01-27T15:50:05.794Z,5.68
2024-01-27T15:52:33.798Z,5.28
2024-01-27T15:55:01.738Z,5.18
2024-01-27T15:57:29.440Z,3.33
2024-01-27T15:59:57.522Z,4.38
2024-01-27T16:02:26.662Z,3.22
2024-01-27T16:04:57.733Z,4.28
2024-01-27T16:07:25.421Z,5.13
2024-01-27T16:09:56.884Z,4.95
2024-01-27T16:12:24.651Z,5.53
2024-01-27T16:14:52.235Z,4.30
2024-01-27T16:17:19.794Z,4.35
2024-01-27T16:19:49.031Z,6.55
2024-01-27T16:22:23.811Z,7.28
2024-01-27T16:24:52.006Z,6.55
2024-01-27T16:27:28.815Z,4.45
2024-01-27T16:29:58.178Z,8.45
2024-01-27T16:32:26.145Z,7.50
2024-01-27T16:34:55.270Z,3.53
2024-01-27T16:37:22.912Z,4.50
2024-01-27T16:39:50.707Z,5.13
2024-01-27T16:42:18.358Z,4.28
2024-01-27T16:44:45.959Z,4.47
2024-01-27T16:47:13.513Z,5.50
2024-01-27T16:49:42.325Z,6.00
2024-01-27T16:54:39.257Z,3.97
2024-01-27T16:57:07.272Z,5.95
2024-01-27T16:59:35.579Z,5.50
2024-01-27T17:02:03.356Z,6.75
2024-01-27T17:04:30.986Z,7.53
2024-01-27T17:06:58.649Z,6.55
2024-01-27T17:09:27.642Z,6.47
2024-01-27T17:14:22.607Z,9.43
2024-01-27T17:16:50.490Z,9.23
2024-01-27T17:19:18.199Z,8.95
2024-01-27T17:21:45.888Z,9.35
2024-01-27T17:24:13.615Z,9.98
2024-01-27T17:26:42.660Z,9.00
2024-01-27T17:29:10.403Z,8.93
2024-01-27T17:31:38.058Z,9.95
2024-01-27T17:34:05.824Z,11.48
2024-01-27T17:36:33.617Z,12.45
2024-01-27T17:39:01.291Z,9.93
2024-01-27T17:41:28.964Z,12.45
2024-01-27T17:43:58.735Z,11.02
2024-01-27T17:46:26.331Z,8.23
2024-01-27T17:48:54.152Z,10.00
2024-01-27T17:51:22.001Z,11.68
2024-01-27T17:53:49.960Z,9.30
2024-01-27T17:56:23.930Z,7.85
2024-01-27T17:58:51.737Z,9.50
2024-01-27T18:01:20.868Z,9.05
2024-01-27T18:03:48.625Z,12.77
2024-01-27T18:06:16.715Z,8.55
2024-01-27T18:08:44.648Z,9.80
2024-01-27T18:11:12.264Z,9.77
2024-01-27T18:13:39.862Z,10.68
2024-01-27T18:16:09.416Z,7.95
2024-01-27T18:18:38.515Z,11.57
2024-01-27T18:21:06.254Z,8.70
2024-01-27T18:23:33.949Z,6.18
2024-01-27T18:26:01.574Z,10.75
2024-01-27T18:28:29.390Z,6.60
2024-01-27T18:30:57.178Z,7.30
2024-01-27T18:33:26.090Z,10.60
2024-01-27T18:35:57.678Z,6.30
2024-01-27T18:40:53.281Z,8.10
2024-01-27T18:43:20.853Z,7.68
2024-01-27T18:45:48.609Z,9.63
2024-01-27T18:48:16.532Z,9.10
2024-01-27T18:50:44.212Z,10.30
2024-01-27T18:53:13.509Z,12.07
2024-01-27T18:55:41.973Z,12.05
2024-01-27T18:58:10.296Z,8.90
2024-01-27T19:00:38.624Z,9.85
2024-01-27T19:03:10.574Z,16.08
2024-01-27T19:05:38.489Z,27.13
2024-01-27T19:08:06.386Z,10.25
2024-01-27T19:10:35.349Z,10.60
2024-01-27T19:15:33.125Z,6.88
2024-01-27T19:18:01.608Z,9.23
2024-01-27T19:20:29.289Z,16.73
2024-01-27T19:22:56.934Z,6.80
2024-01-27T19:25:24.621Z,7.88
2024-01-27T19:27:53.641Z,7.03
2024-01-27T19:32:49.546Z,6.03
2024-01-27T19:35:18.781Z,9.68
2024-01-27T19:37:46.400Z,8.10
2024-01-27T19:40:14.491Z,6.60
2024-01-27T19:42:42.145Z,8.05
2024-01-27T19:45:11.924Z,8.57
2024-01-27T19:47:40.058Z,8.55
2024-01-27T19:50:08.790Z,8.50
2024-01-27T19:52:36.433Z,8.50
2024-01-27T19:55:04.653Z,6.63
2024-01-27T19:57:32.429Z,8.55
2024-01-27T20:00:00.238Z,10.07
2024-01-27T20:02:29.361Z,7.47
2024-01-27T20:07:24.540Z,9.60
2024-01-27T20:09:52.204Z,7.38
2024-01-27T20:12:19.959Z,8.57
2024-01-27T20:14:47.734Z,7.63
2024-01-27T20:17:15.727Z,8.60
2024-01-27T20:19:45.882Z,11.10
2024-01-27T20:22:14.724Z,13.68
2024-01-27T20:24:42.567Z,16.80
2024-01-27T20:27:10.227Z,9.10
2024-01-27T20:29:38.008Z,13.32
2024-01-27T20:32:07.044Z,12.18
2024-01-27T20:34:36.280Z,9.77
2024-01-27T20:37:05.897Z,11.57
2024-01-27T20:39:33.869Z,7.90
2024-01-27T20:42:01.911Z,10.18
2024-01-27T20:44:29.662Z,12.57
2024-01-27T20:46:58.193Z,7.93
2024-01-27T20:49:26.132Z,11.23
2024-01-27T20:51:54.053Z,9.48
2024-01-27T20:54:23.141Z,8.15
2024-01-27T20:59:18.368Z,9.27
2024-01-27T21:01:47.230Z,12.98
2024-01-27T21:04:16.332Z,7.63
2024-01-27T21:06:44.773Z,7.93
2024-01-27T21:09:12.911Z,8.18
2024-01-27T21:11:42.104Z,10.02
2024-01-27T21:14:09.683Z,8.85
2024-01-27T21:16:40.241Z,8.27
2024-01-27T21:19:08.321Z,8.55
2024-01-27T21:21:36.068Z,13.40
2024-01-27T21:24:04.038Z,10.60
2024-01-27T21:26:31.817Z,13.75
2024-01-27T21:29:03.157Z,14.18
2024-01-27T21:31:30.818Z,17.25
2024-01-27T21:33:58.579Z,22.90
2024-01-27T21:36:26.278Z,13.23
2024-01-27T21:38:54.673Z,20.13
2024-01-27T21:41:22.302Z,10.90
2024-01-27T21:43:50.975Z,9.05
2024-01-27T21:46:19.949Z,10.68
2024-01-27T21:48:47.659Z,6.85
2024-01-27T21:51:15.583Z,9.73
2024-01-27T21:53:43.444Z,12.20
2024-01-27T21:56:12.436Z,14.32
2024-01-27T22:01:07.988Z,6.82
2024-01-27T22:03:40.118Z,14.18
2024-01-27T22:06:08.953Z,16.45
2024-01-27T22:08:37.689Z,7.43
2024-01-27T22:11:06.470Z,10.50
2024-01-27T22:13:34.306Z,7.10
2024-01-27T22:16:02.498Z,10.93
2024-01-27T22:18:32.131Z,14.43
2024-01-27T22:21:01.840Z,14.52
2024-01-27T22:23:29.840Z,7.18
2024-01-27T22:25:58.763Z,8.27
2024-01-27T22:28:26.371Z,12.88
2024-01-27T22:30:54.099Z,8.80
2024-01-27T22:33:24.442Z,7.80
2024-01-27T22:35:52.714Z,8.50
2024-01-27T22:38:21.820Z,13.48
2024-01-27T22:40:49.874Z,7.53
2024-01-27T22:43:17.639Z,10.82
2024-01-27T22:45:45.424Z,10.80
2024-01-27T22:48:16.851Z,6.18
2024-01-27T22:50:44.803Z,6.70
2024-01-27T22:53:13.726Z,10.02
2024-01-27T22:55:43.019Z,9.77
2024-01-27T22:58:10.588Z,5.10
2024-01-27T23:00:40.464Z,7.55
2024-01-27T23:03:10.933Z,6.07
2024-01-27T23:05:38.761Z,11.90
2024-01-27T23:08:06.825Z,8.32
2024-01-27T23:10:35.187Z,7.10
2024-01-27T23:13:04.560Z,5.88
2024-01-27T23:15:32.243Z,6.38
2024-01-27T23:18:00.014Z,8.98
2024-01-27T23:20:27.730Z,9.88
2024-01-27T23:22:55.308Z,6.25
2024-01-27T23:25:23.059Z,6.97
2024-01-27T23:27:50.758Z,8.32
2024-01-27T23:30:19.958Z,5.82
2024-01-27T23:32:47.779Z,12.05
2024-01-27T23:35:15.417Z,11.10
2024-01-27T23:37:44.417Z,11.70
2024-01-27T23:40:13.068Z,9.48
2024-01-27T23:42:42.277Z,6.45
2024-01-27T23:45:10.836Z,10.15
2024-01-27T23:47:39.932Z,13.52
2024-01-27T23:50:08.666Z,7.18
2024-01-27T23:52:37.757Z,9.82
2024-01-27T23:55:06.696Z,12.63
2024-01-27T23:57:34.447Z,9.65
